sensor_id;sensor_type;location;lat;lon;timestamp;P1;durP1;ratioP1;P2;durP2;ratioP2
82005;SDS011;71529;47.484;19.064;2024-03-23T00:54:21;21.42;;;11.85;;
82005;SDS011;71529;47.484;19.064;2024-03-23T00:56:47;21.73;;;12.13;;
82005;SDS011;71529;47.484;19.064;2024-03-23T00:59:14;19.60;;;11.68;;
82005;SDS011;71529;47.484;19.064;2024-03-23T01:01:41;14.73;;;10.80;;
82005;SDS011;71529;47.484;19.064;2024-03-23T01:04:07;16.30;;;11.48;;
82005;SDS011;71529;47.484;19.064;2024-03-23T01:06:34;20.08;;;11.98;;
82005;SDS011;71529;47.484;19.064;2024-03-23T01:09:00;19.40;;;12.40;;
82005;SDS011;71529;47.484;19.064;2024-03-23T01:11:29;19.58;;;12.85;;
82005;SDS011;71529;47.484;19.064;2024-03-23T01:13:56;19.92;;;12.77;;
82005;SDS011;71529;47.484;19.064;2024-03-23T01:16:22;18.08;;;12.98;;
82005;SDS011;71529;47.484;19.064;2024-03-23T01:18:49;20.25;;;12.88;;
82005;SDS011;71529;47.484;19.064;2024-03-23T01:21:15;20.88;;;13.07;;
82005;SDS011;71529;47.484;19.064;2024-03-23T01:23:42;25.02;;;13.18;;
82005;SDS011;71529;47.484;19.064;2024-03-23T01:26:08;21.35;;;14.00;;
82005;SDS011;71529;47.484;19.064;2024-03-23T01:28:37;25.17;;;14.95;;
82005;SDS011;71529;47.484;19.064;2024-03-23T01:31:03;26.08;;;14.75;;
82005;SDS011;71529;47.484;19.064;2024-03-23T01:33:30;32.53;;;17.25;;
82005;SDS011;71529;47.484;19.064;2024-03-23T01:35:56;29.73;;;16.65;;
82005;SDS011;71529;47.484;19.064;2024-03-23T01:38:23;27.42;;;17.90;;
82005;SDS011;71529;47.484;19.064;2024-03-23T01:40:50;33.35;;;18.90;;
82005;SDS011;71529;47.484;19.064;2024-03-23T01:43:23;30.13;;;18.52;;
82005;SDS011;71529;47.484;19.064;2024-03-23T01:45:52;32.90;;;19.27;;
82005;SDS011;71529;47.484;19.064;2024-03-23T01:48:19;29.05;;;19.10;;
82005;SDS011;71529;47.484;19.064;2024-03-23T01:50:46;33.95;;;19.92;;
82005;SDS011;71529;47.484;19.064;2024-03-23T01:53:12;39.80;;;19.27;;
82005;SDS011;71529;47.484;19.064;2024-03-23T01:55:40;36.65;;;20.33;;
82005;SDS011;71529;47.484;19.064;2024-03-23T01:58:06;38.15;;;20.13;;
82005;SDS011;71529;47.484;19.064;2024-03-23T02:00:33;29.08;;;20.08;;
82005;SDS011;71529;47.484;19.064;2024-03-23T02:03:02;35.67;;;20.42;;
82005;SDS011;71529;47.484;19.064;2024-03-23T02:05:47;39.00;;;19.92;;
82005;SDS011;71529;47.484;19.064;2024-03-23T02:08:14;32.47;;;19.48;;
82005;SDS011;71529;47.484;19.064;2024-03-23T02:10:41;29.13;;;18.92;;
82005;SDS011;71529;47.484;19.064;2024-03-23T02:13:07;27.23;;;18.55;;
82005;SDS011;71529;47.484;19.064;2024-03-23T02:15:33;33.92;;;18.23;;
82005;SDS011;71529;47.484;19.064;2024-03-23T02:18:03;29.02;;;18.83;;
82005;SDS011;71529;47.484;19.064;2024-03-23T02:20:29;31.00;;;17.80;;
82005;SDS011;71529;47.484;19.064;2024-03-23T02:22:58;31.05;;;18.52;;
82005;SDS011;71529;47.484;19.064;2024-03-23T02:25:24;30.23;;;19.88;;
82005;SDS011;71529;47.484;19.064;2024-03-23T02:27:51;29.90;;;18.30;;
82005;SDS011;71529;47.484;19.064;2024-03-23T02:30:17;29.58;;;17.58;;
82005;SDS011;71529;47.484;19.064;2024-03-23T02:32:43;36.42;;;18.27;;
82005;SDS011;71529;47.484;19.064;2024-03-23T02:35:09;27.35;;;18.15;;
82005;SDS011;71529;47.484;19.064;2024-03-23T02:37:36;27.92;;;17.50;;
82005;SDS011;71529;47.484;19.064;2024-03-23T02:40:05;29.85;;;18.60;;
82005;SDS011;71529;47.484;19.064;2024-03-23T02:42:33;28.10;;;17.83;;
82005;SDS011;71529;47.484;19.064;2024-03-23T02:44:59;43.80;;;18.73;;
82005;SDS011;71529;47.484;19.064;2024-03-23T02:47:25;29.77;;;17.05;;
82005;SDS011;71529;47.484;19.064;2024-03-23T02:49:51;26.60;;;17.83;;
82005;SDS011;71529;47.484;19.064;2024-03-23T02:52:18;36.50;;;18.70;;
82005;SDS011;71529;47.484;19.064;2024-03-23T02:54:44;32.45;;;18.45;;
82005;SDS011;71529;47.484;19.064;2024-03-23T02:57:13;34.80;;;19.45;;
82005;SDS011;71529;47.484;19.064;2024-03-23T02:59:40;37.47;;;19.60;;
82005;SDS011;71529;47.484;19.064;2024-03-23T03:02:06;31.80;;;17.98;;
82005;SDS011;71529;47.484;19.064;2024-03-23T03:04:33;30.73;;;19.30;;
82005;SDS011;71529;47.484;19.064;2024-03-23T03:06:59;34.45;;;19.88;;
82005;SDS011;71529;47.484;19.064;2024-03-23T03:09:26;31.05;;;19.33;;
82005;SDS011;71529;47.484;19.064;2024-03-23T03:11:52;30.25;;;18.65;;
82005;SDS011;71529;47.484;19.064;2024-03-23T03:14:21;31.00;;;19.27;;
82005;SDS011;71529;47.484;19.064;2024-03-23T03:16:48;39.67;;;20.35;;
82005;SDS011;71529;47.484;19.064;2024-03-23T03:19:14;32.63;;;18.95;;
82005;SDS011;71529;47.484;19.064;2024-03-23T03:21:41;34.40;;;19.02;;
82005;SDS011;71529;47.484;19.064;2024-03-23T03:24:07;34.10;;;20.25;;
82005;SDS011;71529;47.484;19.064;2024-03-23T03:26:33;30.98;;;18.42;;
82005;SDS011;71529;47.484;19.064;2024-03-23T03:28:59;31.75;;;20.48;;
82005;SDS011;71529;47.484;19.064;2024-03-23T03:31:29;33.90;;;20.88;;
82005;SDS011;71529;47.484;19.064;2024-03-23T03:33:55;31.52;;;18.77;;
82005;SDS011;71529;47.484;19.064;2024-03-23T03:36:22;31.48;;;20.48;;
82005;SDS011;71529;47.484;19.064;2024-03-23T03:38:48;30.90;;;18.40;;
82005;SDS011;71529;47.484;19.064;2024-03-23T03:41:14;29.77;;;19.08;;
82005;SDS011;71529;47.484;19.064;2024-03-23T03:43:41;34.38;;;19.33;;
82005;SDS011;71529;47.484;19.064;2024-03-23T03:46:07;32.72;;;20.08;;
82005;SDS011;71529;47.484;19.064;2024-03-23T03:48:36;29.98;;;18.40;;
82005;SDS011;71529;47.484;19.064;2024-03-23T03:51:03;27.23;;;17.77;;
82005;SDS011;71529;47.484;19.064;2024-03-23T03:53:29;29.90;;;19.30;;
82005;SDS011;71529;47.484;19.064;2024-03-23T03:55:55;33.78;;;19.15;;
82005;SDS011;71529;47.484;19.064;2024-03-23T03:58:22;41.28;;;26.90;;
82005;SDS011;71529;47.484;19.064;2024-03-23T04:00:49;46.90;;;29.70;;
82005;SDS011;71529;47.484;19.064;2024-03-23T04:03:15;34.78;;;21.77;;
82005;SDS011;71529;47.484;19.064;2024-03-23T04:05:47;32.25;;;20.90;;
82005;SDS011;71529;47.484;19.064;2024-03-23T04:08:16;41.03;;;25.75;;
82005;SDS011;71529;47.484;19.064;2024-03-23T04:10:43;35.03;;;21.50;;
82005;SDS011;71529;47.484;19.064;2024-03-23T04:13:09;32.08;;;20.35;;
82005;SDS011;71529;47.484;19.064;2024-03-23T04:15:35;37.20;;;20.40;;
82005;SDS011;71529;47.484;19.064;2024-03-23T04:18:01;32.65;;;19.45;;
82005;SDS011;71529;47.484;19.064;2024-03-23T04:20:28;27.67;;;18.77;;
82005;SDS011;71529;47.484;19.064;2024-03-23T04:22:57;31.10;;;19.92;;
82005;SDS011;71529;47.484;19.064;2024-03-23T04:25:23;32.03;;;21.15;;
82005;SDS011;71529;47.484;19.064;2024-03-23T04:27:49;30.88;;;19.00;;
82005;SDS011;71529;47.484;19.064;2024-03-23T04:30:15;27.48;;;19.73;;
82005;SDS011;71529;47.484;19.064;2024-03-23T04:32:42;34.85;;;19.98;;
82005;SDS011;71529;47.484;19.064;2024-03-23T04:35:09;30.30;;;19.10;;
82005;SDS011;71529;47.484;19.064;2024-03-23T04:37:35;27.45;;;18.85;;
82005;SDS011;71529;47.484;19.064;2024-03-23T04:40:04;39.08;;;20.80;;
82005;SDS011;71529;47.484;19.064;2024-03-23T04:42:31;27.05;;;19.73;;
82005;SDS011;71529;47.484;19.064;2024-03-23T04:44:58;34.67;;;19.80;;
82005;SDS011;71529;47.484;19.064;2024-03-23T04:47:24;35.13;;;19.60;;
82005;SDS011;71529;47.484;19.064;2024-03-23T04:49:51;33.78;;;19.25;;
82005;SDS011;71529;47.484;19.064;2024-03-23T04:52:18;31.98;;;19.55;;
82005;SDS011;71529;47.484;19.064;2024-03-23T04:54:44;28.65;;;19.15;;
82005;SDS011;71529;47.484;19.064;2024-03-23T04:57:14;30.15;;;20.52;;
82005;SDS011;71529;47.484;19.064;2024-03-23T04:59:40;27.58;;;18.42;;
82005;SDS011;71529;47.484;19.064;2024-03-23T05:02:06;31.05;;;18.80;;
82005;SDS011;71529;47.484;19.064;2024-03-23T05:04:33;32.85;;;17.73;;
82005;SDS011;71529;47.484;19.064;2024-03-23T05:07:00;28.10;;;16.90;;
82005;SDS011;71529;47.484;19.064;2024-03-23T05:09:26;29.25;;;17.30;;
82005;SDS011;71529;47.484;19.064;2024-03-23T05:11:52;24.05;;;17.42;;
82005;SDS011;71529;47.484;19.064;2024-03-23T05:14:21;25.58;;;17.60;;
82005;SDS011;71529;47.484;19.064;2024-03-23T05:16:47;27.10;;;17.70;;
82005;SDS011;71529;47.484;19.064;2024-03-23T05:19:13;26.27;;;17.83;;
82005;SDS011;71529;47.484;19.064;2024-03-23T05:21:40;28.98;;;17.67;;
82005;SDS011;71529;47.484;19.064;2024-03-23T05:24:06;31.02;;;19.40;;
82005;SDS011;71529;47.484;19.064;2024-03-23T05:26:32;30.50;;;17.35;;
82005;SDS011;71529;47.484;19.064;2024-03-23T05:29:00;27.90;;;16.75;;
82005;SDS011;71529;47.484;19.064;2024-03-23T05:31:29;26.80;;;17.15;;
82005;SDS011;71529;47.484;19.064;2024-03-23T05:33:56;29.30;;;17.83;;
82005;SDS011;71529;47.484;19.064;2024-03-23T05:36:23;24.40;;;15.82;;
82005;SDS011;71529;47.484;19.064;2024-03-23T05:38:50;30.92;;;16.35;;
82005;SDS011;71529;47.484;19.064;2024-03-23T05:41:16;21.67;;;16.00;;
82005;SDS011;71529;47.484;19.064;2024-03-23T05:43:42;24.70;;;16.13;;
82005;SDS011;71529;47.484;19.064;2024-03-23T05:46:09;24.58;;;16.50;;
82005;SDS011;71529;47.484;19.064;2024-03-23T05:48:38;28.30;;;18.35;;
82005;SDS011;71529;47.484;19.064;2024-03-23T05:51:04;26.92;;;17.25;;
82005;SDS011;71529;47.484;19.064;2024-03-23T05:53:31;27.80;;;17.98;;
82005;SDS011;71529;47.484;19.064;2024-03-23T05:56:00;23.63;;;17.02;;
82005;SDS011;71529;47.484;19.064;2024-03-23T05:58:29;24.40;;;16.02;;
82005;SDS011;71529;47.484;19.064;2024-03-23T06:00:59;27.17;;;16.77;;
82005;SDS011;71529;47.484;19.064;2024-03-23T06:03:26;23.40;;;16.83;;
82005;SDS011;71529;47.484;19.064;2024-03-23T06:05:56;24.50;;;16.70;;
82005;SDS011;71529;47.484;19.064;2024-03-23T06:08:22;26.27;;;16.50;;
82005;SDS011;71529;47.484;19.064;2024-03-23T06:10:49;27.90;;;17.60;;
82005;SDS011;71529;47.484;19.064;2024-03-23T06:13:16;22.88;;;15.77;;
82005;SDS011;71529;47.484;19.064;2024-03-23T06:15:43;24.70;;;16.40;;
82005;SDS011;71529;47.484;19.064;2024-03-23T06:18:09;22.55;;;16.23;;
82005;SDS011;71529;47.484;19.064;2024-03-23T06:20:35;24.85;;;17.52;;
82005;SDS011;71529;47.484;19.064;2024-03-23T06:23:04;24.50;;;16.75;;
82005;SDS011;71529;47.484;19.064;2024-03-23T06:25:30;23.58;;;16.42;;
82005;SDS011;71529;47.484;19.064;2024-03-23T06:27:57;21.88;;;16.15;;
82005;SDS011;71529;47.484;19.064;2024-03-23T06:30:24;23.42;;;15.93;;
82005;SDS011;71529;47.484;19.064;2024-03-23T06:32:50;24.33;;;17.17;;
82005;SDS011;71529;47.484;19.064;2024-03-23T06:35:17;22.70;;;17.85;;
82005;SDS011;71529;47.484;19.064;2024-03-23T06:37:44;23.13;;;16.70;;
82005;SDS011;71529;47.484;19.064;2024-03-23T06:40:12;22.88;;;16.40;;
82005;SDS011;71529;47.484;19.064;2024-03-23T06:42:39;24.58;;;16.60;;
82005;SDS011;71529;47.484;19.064;2024-03-23T06:45:05;27.27;;;17.83;;
82005;SDS011;71529;47.484;19.064;2024-03-23T06:47:32;29.40;;;18.30;;
82005;SDS011;71529;47.484;19.064;2024-03-23T06:49:59;25.02;;;17.30;;
82005;SDS011;71529;47.484;19.064;2024-03-23T06:52:27;30.38;;;18.40;;
82005;SDS011;71529;47.484;19.064;2024-03-23T06:54:54;26.45;;;17.50;;
82005;SDS011;71529;47.484;19.064;2024-03-23T06:57:23;30.73;;;18.73;;
82005;SDS011;71529;47.484;19.064;2024-03-23T06:59:50;25.02;;;17.75;;
82005;SDS011;71529;47.484;19.064;2024-03-23T07:02:16;24.50;;;17.65;;
82005;SDS011;71529;47.484;19.064;2024-03-23T07:04:43;23.25;;;17.52;;
82005;SDS011;71529;47.484;19.064;2024-03-23T07:07:09;27.25;;;18.45;;
82005;SDS011;71529;47.484;19.064;2024-03-23T07:09:35;25.63;;;18.83;;
82005;SDS011;71529;47.484;19.064;2024-03-23T07:12:02;24.58;;;17.42;;
82005;SDS011;71529;47.484;19.064;2024-03-23T07:14:31;31.38;;;18.35;;
82005;SDS011;71529;47.484;19.064;2024-03-23T07:16:58;25.92;;;18.55;;
82005;SDS011;71529;47.484;19.064;2024-03-23T07:19:25;23.38;;;18.70;;
82005;SDS011;71529;47.484;19.064;2024-03-23T07:21:51;26.52;;;18.45;;
82005;SDS011;71529;47.484;19.064;2024-03-23T07:24:17;25.65;;;17.98;;
82005;SDS011;71529;47.484;19.064;2024-03-23T07:26:44;31.65;;;18.98;;
82005;SDS011;71529;47.484;19.064;2024-03-23T07:29:10;28.88;;;18.00;;
82005;SDS011;71529;47.484;19.064;2024-03-23T07:31:38;24.65;;;17.35;;
82005;SDS011;71529;47.484;19.064;2024-03-23T07:34:05;28.55;;;18.80;;
82005;SDS011;71529;47.484;19.064;2024-03-23T07:36:31;25.00;;;17.88;;
82005;SDS011;71529;47.484;19.064;2024-03-23T07:38:57;28.67;;;19.13;;
82005;SDS011;71529;47.484;19.064;2024-03-23T07:41:24;24.60;;;18.00;;
82005;SDS011;71529;47.484;19.064;2024-03-23T07:43:50;26.50;;;18.30;;
82005;SDS011;71529;47.484;19.064;2024-03-23T07:46:16;29.02;;;18.20;;
82005;SDS011;71529;47.484;19.064;2024-03-23T07:48:45;27.20;;;18.05;;
82005;SDS011;71529;47.484;19.064;2024-03-23T07:51:13;25.73;;;19.10;;
82005;SDS011;71529;47.484;19.064;2024-03-23T07:53:42;31.33;;;18.38;;
82005;SDS011;71529;47.484;19.064;2024-03-23T07:56:09;34.20;;;18.25;;
82005;SDS011;71529;47.484;19.064;2024-03-23T07:58:36;31.80;;;19.38;;
82005;SDS011;71529;47.484;19.064;2024-03-23T08:01:04;25.20;;;18.77;;
82005;SDS011;71529;47.484;19.064;2024-03-23T08:03:31;27.92;;;17.55;;
82005;SDS011;71529;47.484;19.064;2024-03-23T08:05:59;24.38;;;18.10;;
82005;SDS011;71529;47.484;19.064;2024-03-23T08:08:32;26.35;;;17.30;;
82005;SDS011;71529;47.484;19.064;2024-03-23T08:10:58;27.83;;;17.90;;
82005;SDS011;71529;47.484;19.064;2024-03-23T08:13:26;28.17;;;18.38;;
82005;SDS011;71529;47.484;19.064;2024-03-23T08:15:55;26.33;;;17.45;;
82005;SDS011;71529;47.484;19.064;2024-03-23T08:18:22;28.40;;;17.35;;
82005;SDS011;71529;47.484;19.064;2024-03-23T08:20:54;22.73;;;16.88;;
82005;SDS011;71529;47.484;19.064;2024-03-23T08:23:24;25.90;;;17.38;;
82005;SDS011;71529;47.484;19.064;2024-03-23T08:25:51;24.10;;;17.20;;
82005;SDS011;71529;47.484;19.064;2024-03-23T08:28:17;25.40;;;16.63;;
82005;SDS011;71529;47.484;19.064;2024-03-23T08:30:43;21.67;;;16.75;;
82005;SDS011;71529;47.484;19.064;2024-03-23T08:33:09;22.23;;;16.58;;
82005;SDS011;71529;47.484;19.064;2024-03-23T08:35:35;23.58;;;16.52;;
82005;SDS011;71529;47.484;19.064;2024-03-23T08:38:02;21.52;;;16.02;;
82005;SDS011;71529;47.484;19.064;2024-03-23T08:40:31;24.08;;;16.52;;
82005;SDS011;71529;47.484;19.064;2024-03-23T08:42:57;26.33;;;16.92;;
82005;SDS011;71529;47.484;19.064;2024-03-23T08:45:24;22.80;;;15.90;;
82005;SDS011;71529;47.484;19.064;2024-03-23T08:47:51;21.83;;;16.65;;
82005;SDS011;71529;47.484;19.064;2024-03-23T08:50:17;25.15;;;16.45;;
82005;SDS011;71529;47.484;19.064;2024-03-23T08:52:44;21.63;;;15.98;;
82005;SDS011;71529;47.484;19.064;2024-03-23T08:55:10;20.08;;;15.20;;
82005;SDS011;71529;47.484;19.064;2024-03-23T08:57:39;24.02;;;14.60;;
82005;SDS011;71529;47.484;19.064;2024-03-23T09:00:06;18.40;;;14.75;;
82005;SDS011;71529;47.484;19.064;2024-03-23T09:02:33;18.38;;;14.45;;
82005;SDS011;71529;47.484;19.064;2024-03-23T09:05:00;21.17;;;14.80;;
82005;SDS011;71529;47.484;19.064;2024-03-23T09:07:27;20.77;;;15.30;;
82005;SDS011;71529;47.484;19.064;2024-03-23T09:09:53;20.67;;;14.63;;
82005;SDS011;71529;47.484;19.064;2024-03-23T09:12:19;23.27;;;15.70;;
82005;SDS011;71529;47.484;19.064;2024-03-23T09:14:48;25.95;;;15.75;;
82005;SDS011;71529;47.484;19.064;2024-03-23T09:17:15;19.92;;;14.77;;
82005;SDS011;71529;47.484;19.064;2024-03-23T09:19:41;23.17;;;15.43;;
82005;SDS011;71529;47.484;19.064;2024-03-23T09:22:07;33.03;;;15.05;;
82005;SDS011;71529;47.484;19.064;2024-03-23T09:24:34;20.35;;;14.52;;
82005;SDS011;71529;47.484;19.064;2024-03-23T09:27:00;22.20;;;15.50;;
82005;SDS011;71529;47.484;19.064;2024-03-23T09:29:26;17.80;;;14.05;;
82005;SDS011;71529;47.484;19.064;2024-03-23T09:31:56;21.35;;;14.57;;
82005;SDS011;71529;47.484;19.064;2024-03-23T09:34:22;18.95;;;14.20;;
82005;SDS011;71529;47.484;19.064;2024-03-23T09:36:50;19.98;;;14.07;;
82005;SDS011;71529;47.484;19.064;2024-03-23T09:39:17;20.25;;;13.63;;
82005;SDS011;71529;47.484;19.064;2024-03-23T09:41:44;21.67;;;13.75;;
82005;SDS011;71529;47.484;19.064;2024-03-23T09:44:10;21.60;;;12.82;;
82005;SDS011;71529;47.484;19.064;2024-03-23T09:46:36;29.15;;;14.80;;
82005;SDS011;71529;47.484;19.064;2024-03-23T09:49:05;36.55;;;14.18;;
82005;SDS011;71529;47.484;19.064;2024-03-23T09:51:32;33.47;;;15.30;;
82005;SDS011;71529;47.484;19.064;2024-03-23T09:53:59;27.02;;;14.68;;
82005;SDS011;71529;47.484;19.064;2024-03-23T09:56:25;38.55;;;15.35;;
82005;SDS011;71529;47.484;19.064;2024-03-23T09:58:51;36.20;;;16.48;;
82005;SDS011;71529;47.484;19.064;2024-03-23T10:01:25;51.83;;;15.65;;
82005;SDS011;71529;47.484;19.064;2024-03-23T10:03:52;29.63;;;15.05;;
82005;SDS011;71529;47.484;19.064;2024-03-23T10:06:23;28.35;;;18.98;;
82005;SDS011;71529;47.484;19.064;2024-03-23T10:08:51;25.63;;;15.90;;
82005;SDS011;71529;47.484;19.064;2024-03-23T10:11:18;35.47;;;16.15;;
82005;SDS011;71529;47.484;19.064;2024-03-23T10:13:44;33.95;;;21.02;;
82005;SDS011;71529;47.484;19.064;2024-03-23T10:16:12;43.70;;;21.42;;
82005;SDS011;71529;47.484;19.064;2024-03-23T10:18:47;35.15;;;19.67;;
82005;SDS011;71529;47.484;19.064;2024-03-23T10:21:14;39.38;;;19.83;;
82005;SDS011;71529;47.484;19.064;2024-03-23T10:23:43;30.08;;;19.30;;
82005;SDS011;71529;47.484;19.064;2024-03-23T10:26:19;30.15;;;17.52;;
82005;SDS011;71529;47.484;19.064;2024-03-23T10:28:54;24.08;;;15.27;;
82005;SDS011;71529;47.484;19.064;2024-03-23T10:31:22;20.52;;;14.55;;
82005;SDS011;71529;47.484;19.064;2024-03-23T10:33:49;21.55;;;13.93;;
82005;SDS011;71529;47.484;19.064;2024-03-23T10:36:15;21.88;;;14.98;;
82005;SDS011;71529;47.484;19.064;2024-03-23T10:38:44;15.73;;;12.02;;
82005;SDS011;71529;47.484;19.064;2024-03-23T10:41:11;19.55;;;12.48;;
82005;SDS011;71529;47.484;19.064;2024-03-23T10:43:39;17.38;;;11.60;;
82005;SDS011;71529;47.484;19.064;2024-03-23T10:46:05;14.05;;;11.30;;
82005;SDS011;71529;47.484;19.064;2024-03-23T10:48:32;14.73;;;10.38;;
82005;SDS011;71529;47.484;19.064;2024-03-23T10:50:59;27.60;;;18.13;;
82005;SDS011;71529;47.484;19.064;2024-03-23T10:53:26;20.63;;;14.27;;
82005;SDS011;71529;47.484;19.064;2024-03-23T10:55:55;17.45;;;11.20;;
82005;SDS011;71529;47.484;19.064;2024-03-23T10:58:23;16.48;;;11.45;;
82005;SDS011;71529;47.484;19.064;2024-03-23T11:03:31;14.52;;;9.75;;
82005;SDS011;71529;47.484;19.064;2024-03-23T11:06:02;14.43;;;9.73;;
82005;SDS011;71529;47.484;19.064;2024-03-23T11:08:32;13.93;;;9.93;;
82005;SDS011;71529;47.484;19.064;2024-03-23T11:11:16;15.15;;;9.30;;
82005;SDS011;71529;47.484;19.064;2024-03-23T11:13:43;19.23;;;8.75;;
82005;SDS011;71529;47.484;19.064;2024-03-23T11:16:14;10.95;;;8.48;;
82005;SDS011;71529;47.484;19.064;2024-03-23T11:18:41;15.45;;;10.43;;
82005;SDS011;71529;47.484;19.064;2024-03-23T11:21:07;25.23;;;18.05;;
82005;SDS011;71529;47.484;19.064;2024-03-23T11:23:34;27.58;;;19.50;;
82005;SDS011;71529;47.484;19.064;2024-03-23T11:26:01;22.75;;;15.70;;
82005;SDS011;71529;47.484;19.064;2024-03-23T11:28:29;26.45;;;15.65;;
82005;SDS011;71529;47.484;19.064;2024-03-23T11:30:56;28.75;;;17.23;;
82005;SDS011;71529;47.484;19.064;2024-03-23T11:33:22;19.80;;;12.75;;
82005;SDS011;71529;47.484;19.064;2024-03-23T11:35:48;22.33;;;13.20;;
82005;SDS011;71529;47.484;19.064;2024-03-23T11:38:15;16.15;;;10.93;;
82005;SDS011;71529;47.484;19.064;2024-03-23T11:40:43;14.25;;;9.02;;
82005;SDS011;71529;47.484;19.064;2024-03-23T11:43:11;16.48;;;7.80;;
82005;SDS011;71529;47.484;19.064;2024-03-23T11:45:42;14.70;;;8.18;;
82005;SDS011;71529;47.484;19.064;2024-03-23T11:48:10;10.75;;;7.28;;
82005;SDS011;71529;47.484;19.064;2024-03-23T11:50:39;12.20;;;7.22;;
82005;SDS011;71529;47.484;19.064;2024-03-23T11:53:12;10.55;;;7.40;;
82005;SDS011;71529;47.484;19.064;2024-03-23T11:55:45;15.55;;;6.70;;
82005;SDS011;71529;47.484;19.064;2024-03-23T11:58:12;16.02;;;8.00;;
82005;SDS011;71529;47.484;19.064;2024-03-23T12:00:41;11.10;;;7.53;;
82005;SDS011;71529;47.484;19.064;2024-03-23T12:03:08;12.73;;;7.38;;
82005;SDS011;71529;47.484;19.064;2024-03-23T12:05:36;13.23;;;6.80;;
82005;SDS011;71529;47.484;19.064;2024-03-23T12:08:16;10.32;;;6.90;;
82005;SDS011;71529;47.484;19.064;2024-03-23T12:10:47;11.25;;;6.30;;
82005;SDS011;71529;47.484;19.064;2024-03-23T12:13:15;18.58;;;7.13;;
82005;SDS011;71529;47.484;19.064;2024-03-23T12:15:46;10.30;;;5.80;;
82005;SDS011;71529;47.484;19.064;2024-03-23T12:18:13;11.20;;;6.40;;
82005;SDS011;71529;47.484;19.064;2024-03-23T12:20:39;10.68;;;6.15;;
82005;SDS011;71529;47.484;19.064;2024-03-23T12:23:07;14.40;;;7.80;;
82005;SDS011;71529;47.484;19.064;2024-03-23T12:25:35;12.32;;;8.55;;
82005;SDS011;71529;47.484;19.064;2024-03-23T12:28:02;14.77;;;8.27;;
82005;SDS011;71529;47.484;19.064;2024-03-23T12:30:29;10.52;;;8.20;;
82005;SDS011;71529;47.484;19.064;2024-03-23T12:32:58;13.63;;;7.53;;
82005;SDS011;71529;47.484;19.064;2024-03-23T12:35:24;12.43;;;7.10;;
82005;SDS011;71529;47.484;19.064;2024-03-23T12:37:51;14.95;;;7.28;;
82005;SDS011;71529;47.484;19.064;2024-03-23T12:40:17;12.85;;;6.97;;
82005;SDS011;71529;47.484;19.064;2024-03-23T12:42:43;12.50;;;6.75;;
82005;SDS011;71529;47.484;19.064;2024-03-23T12:45:09;14.35;;;7.18;;
82005;SDS011;71529;47.484;19.064;2024-03-23T12:47:36;8.15;;;5.60;;
82005;SDS011;71529;47.484;19.064;2024-03-23T12:50:06;8.27;;;5.53;;
82005;SDS011;71529;47.484;19.064;2024-03-23T12:52:33;13.57;;;5.90;;
82005;SDS011;71529;47.484;19.064;2024-03-23T12:54:59;10.00;;;5.38;;
82005;SDS011;71529;47.484;19.064;2024-03-23T12:57:25;9.07;;;5.72;;
82005;SDS011;71529;47.484;19.064;2024-03-23T12:59:52;12.13;;;5.13;;
82005;SDS011;71529;47.484;19.064;2024-03-23T13:02:19;8.73;;;5.05;;
82005;SDS011;71529;47.484;19.064;2024-03-23T13:04:46;9.20;;;4.95;;
82005;SDS011;71529;47.484;19.064;2024-03-23T13:07:17;8.02;;;5.10;;
82005;SDS011;71529;47.484;19.064;2024-03-23T13:09:44;9.43;;;4.70;;
82005;SDS011;71529;47.484;19.064;2024-03-23T13:12:11;10.15;;;4.40;;
82005;SDS011;71529;47.484;19.064;2024-03-23T13:14:38;8.43;;;5.10;;
82005;SDS011;71529;47.484;19.064;2024-03-23T13:17:05;7.43;;;4.55;;
82005;SDS011;71529;47.484;19.064;2024-03-23T13:19:32;10.35;;;4.80;;
82005;SDS011;71529;47.484;19.064;2024-03-23T13:21:59;9.82;;;4.88;;
82005;SDS011;71529;47.484;19.064;2024-03-23T13:24:29;7.97;;;5.00;;
82005;SDS011;71529;47.484;19.064;2024-03-23T13:26:56;8.00;;;4.95;;
82005;SDS011;71529;47.484;19.064;2024-03-23T13:29:23;5.93;;;4.35;;
82005;SDS011;71529;47.484;19.064;2024-03-23T13:31:50;6.45;;;4.30;;
82005;SDS011;71529;47.484;19.064;2024-03-23T13:34:17;6.35;;;3.85;;
82005;SDS011;71529;47.484;19.064;2024-03-23T13:36:44;6.28;;;4.13;;
82005;SDS011;71529;47.484;19.064;2024-03-23T13:39:11;5.30;;;4.03;;
82005;SDS011;71529;47.484;19.064;2024-03-23T13:41:41;6.43;;;4.28;;
82005;SDS011;71529;47.484;19.064;2024-03-23T13:44:09;7.78;;;4.28;;
82005;SDS011;71529;47.484;19.064;2024-03-23T13:46:36;8.23;;;5.18;;
82005;SDS011;71529;47.484;19.064;2024-03-23T13:49:03;9.73;;;5.40;;
82005;SDS011;71529;47.484;19.064;2024-03-23T13:51:29;8.02;;;5.75;;
82005;SDS011;71529;47.484;19.064;2024-03-23T13:53:56;7.57;;;4.95;;
82005;SDS011;71529;47.484;19.064;2024-03-23T13:56:23;8.63;;;5.28;;
82005;SDS011;71529;47.484;19.064;2024-03-23T13:58:52;7.70;;;5.40;;
82005;SDS011;71529;47.484;19.064;2024-03-23T14:01:19;13.23;;;8.95;;
82005;SDS011;71529;47.484;19.064;2024-03-23T14:03:45;12.32;;;8.00;;
82005;SDS011;71529;47.484;19.064;2024-03-23T14:06:11;13.40;;;8.52;;
82005;SDS011;71529;47.484;19.064;2024-03-23T14:08:38;15.98;;;8.05;;
82005;SDS011;71529;47.484;19.064;2024-03-23T14:11:05;13.55;;;7.35;;
82005;SDS011;71529;47.484;19.064;2024-03-23T14:13:32;12.02;;;7.57;;
82005;SDS011;71529;47.484;19.064;2024-03-23T14:16:01;13.45;;;7.43;;
82005;SDS011;71529;47.484;19.064;2024-03-23T14:18:27;11.00;;;7.35;;
82005;SDS011;71529;47.484;19.064;2024-03-23T14:20:56;12.43;;;6.63;;
82005;SDS011;71529;47.484;19.064;2024-03-23T14:23:24;10.23;;;6.43;;
82005;SDS011;71529;47.484;19.064;2024-03-23T14:25:52;9.68;;;6.60;;
82005;SDS011;71529;47.484;19.064;2024-03-23T14:28:20;9.18;;;5.95;;
82005;SDS011;71529;47.484;19.064;2024-03-23T14:30:46;8.98;;;5.85;;
82005;SDS011;71529;47.484;19.064;2024-03-23T14:33:15;10.55;;;5.55;;
82005;SDS011;71529;47.484;19.064;2024-03-23T14:35:42;8.77;;;4.78;;
82005;SDS011;71529;47.484;19.064;2024-03-23T14:38:08;7.47;;;5.70;;
82005;SDS011;71529;47.484;19.064;2024-03-23T14:40:34;8.38;;;4.90;;
82005;SDS011;71529;47.484;19.064;2024-03-23T14:43:00;9.15;;;4.95;;
82005;SDS011;71529;47.484;19.064;2024-03-23T14:45:26;9.07;;;4.80;;
82005;SDS011;71529;47.484;19.064;2024-03-23T14:47:53;7.72;;;4.72;;
82005;SDS011;71529;47.484;19.064;2024-03-23T14:50:22;8.68;;;5.78;;
82005;SDS011;71529;47.484;19.064;2024-03-23T14:52:48;13.63;;;6.65;;
82005;SDS011;71529;47.484;19.064;2024-03-23T14:55:14;14.25;;;6.80;;
82005;SDS011;71529;47.484;19.064;2024-03-23T14:57:41;13.10;;;8.05;;
82005;SDS011;71529;47.484;19.064;2024-03-23T15:00:08;11.73;;;6.45;;
82005;SDS011;71529;47.484;19.064;2024-03-23T15:02:35;17.35;;;8.73;;
82005;SDS011;71529;47.484;19.064;2024-03-23T15:05:01;14.77;;;8.27;;
82005;SDS011;71529;47.484;19.064;2024-03-23T15:07:31;13.38;;;8.20;;
82005;SDS011;71529;47.484;19.064;2024-03-23T15:09:57;11.35;;;7.13;;